createdAt,value
2023-11-15T00:01:55.038Z,9.02
2023-11-15T00:04:23.141Z,9.02
2023-11-15T00:06:51.713Z,9.06
2023-11-15T00:09:19.905Z,9.08
2023-11-15T00:11:52.432Z,9.08
2023-11-15T00:14:22.091Z,9.07
2023-11-15T00:16:52.206Z,9.07
2023-11-15T00:19:22.255Z,9.07
2023-11-15T00:21:51.003Z,9.08
2023-11-15T00:24:19.780Z,9.07
2023-11-15T00:26:48.200Z,9.07
2023-11-15T00:29:16.324Z,9.11
2023-11-15T00:31:45.798Z,9.10
2023-11-15T00:34:13.885Z,9.10
2023-11-15T00:36:46.044Z,9.10
2023-11-15T00:39:14.154Z,9.12
2023-11-15T00:41:42.432Z,9.10
2023-11-15T00:44:10.546Z,9.11
2023-11-15T00:46:39.240Z,9.11
2023-11-15T00:49:09.391Z,9.12
2023-11-15T00:51:37.584Z,9.08
2023-11-15T00:54:07.836Z,9.10
2023-11-15T00:56:35.962Z,9.09
2023-11-15T00:59:04.421Z,9.11
2023-11-15T01:01:32.745Z,9.12
2023-11-15T01:04:01.059Z,9.15
2023-11-15T01:06:30.700Z,9.16
2023-11-15T01:08:59.079Z,9.22
2023-11-15T01:11:28.007Z,9.24
2023-11-15T01:13:57.180Z,9.21
2023-11-15T01:16:25.936Z,9.20
2023-11-15T01:18:54.867Z,9.16
2023-11-15T01:21:23.106Z,9.18
2023-11-15T01:23:52.805Z,9.22
2023-11-15T01:26:21.823Z,9.22
2023-11-15T01:28:50.281Z,9.23
2023-11-15T01:31:18.366Z,9.14
2023-11-15T01:33:46.558Z,9.10
2023-11-15T01:36:15.585Z,9.07
2023-11-15T01:38:43.795Z,9.09
2023-11-15T01:41:13.947Z,9.08
2023-11-15T01:43:42.049Z,9.09
2023-11-15T01:46:10.496Z,9.04
2023-11-15T01:48:39.274Z,9.01
2023-11-15T01:51:08.441Z,8.99
2023-11-15T01:53:37.442Z,8.98
2023-11-15T01:56:06.506Z,8.98
2023-11-15T01:58:36.303Z,8.95
2023-11-15T02:01:06.471Z,8.88
2023-11-15T02:03:34.824Z,8.91
2023-11-15T02:06:03.193Z,8.88
2023-11-15T02:08:31.370Z,8.91
2023-11-15T02:10:59.595Z,8.88
2023-11-15T02:13:29.327Z,8.84
2023-11-15T02:15:58.186Z,8.83
2023-11-15T02:18:27.215Z,8.86
2023-11-15T02:20:55.609Z,8.90
2023-11-15T02:23:25.073Z,8.89
2023-11-15T02:25:54.740Z,8.85
2023-11-15T02:28:22.862Z,8.82
2023-11-15T02:30:51.309Z,8.82
2023-11-15T02:33:20.113Z,8.74
2023-11-15T02:35:49.054Z,8.73
2023-11-15T02:38:17.602Z,8.74
2023-11-15T02:40:46.809Z,8.77
2023-11-15T02:43:16.370Z,8.79
2023-11-15T02:45:44.759Z,8.81
2023-11-15T02:48:13.195Z,8.83
2023-11-15T02:50:41.396Z,8.83
2023-11-15T02:53:12.664Z,8.86
2023-11-15T02:55:40.829Z,8.86
2023-11-15T02:58:09.170Z,8.87
2023-11-15T03:00:39.178Z,8.85
2023-11-15T03:03:07.785Z,8.86
2023-11-15T03:05:36.439Z,8.86
2023-11-15T03:08:06.890Z,8.87
2023-11-15T03:10:35.184Z,8.90
2023-11-15T03:13:04.767Z,8.91
2023-11-15T03:15:33.325Z,8.90
2023-11-15T03:18:03.067Z,8.93
2023-11-15T03:20:32.165Z,8.94
2023-11-15T03:23:00.274Z,8.95
2023-11-15T03:25:28.348Z,8.97
2023-11-15T03:27:56.814Z,8.98
2023-11-15T03:30:25.513Z,9.03
2023-11-15T03:32:53.673Z,9.04
2023-11-15T03:35:23.372Z,9.03
2023-11-15T03:37:54.302Z,9.03
2023-11-15T03:40:25.320Z,9.10
2023-11-15T03:42:53.520Z,9.11
2023-11-15T03:45:21.755Z,9.11
2023-11-15T03:47:50.015Z,9.13
2023-11-15T03:50:19.589Z,9.16
2023-11-15T03:52:49.038Z,9.16
2023-11-15T03:55:18.284Z,9.17
2023-11-15T03:57:47.634Z,9.15
2023-11-15T04:00:15.430Z,9.17
2023-11-15T04:02:43.578Z,9.17
2023-11-15T04:05:12.094Z,9.14
2023-11-15T04:07:40.451Z,9.15
2023-11-15T04:10:11.700Z,9.16
2023-11-15T04:12:39.868Z,9.23
2023-11-15T04:15:10.481Z,9.22
2023-11-15T04:17:39.147Z,9.19
2023-11-15T04:20:09.892Z,9.19
2023-11-15T04:22:38.010Z,9.17
2023-11-15T04:25:06.983Z,9.16
2023-11-15T04:27:36.474Z,9.16
2023-11-15T04:30:04.949Z,9.19
2023-11-15T04:32:33.077Z,9.18
2023-11-15T04:35:01.247Z,9.18
2023-11-15T04:37:30.299Z,9.16
2023-11-15T04:39:58.925Z,9.14
2023-11-15T04:42:27.023Z,9.16
2023-11-15T04:44:56.485Z,9.18
2023-11-15T04:47:24.622Z,9.16
2023-11-15T04:49:52.728Z,9.15
2023-11-15T04:52:20.864Z,9.14
2023-11-15T04:54:48.999Z,9.13
2023-11-15T04:57:17.278Z,9.13
2023-11-15T04:59:45.410Z,9.16
2023-11-15T05:02:15.085Z,9.16
2023-11-15T05:04:43.363Z,9.15
2023-11-15T05:07:12.170Z,9.16
2023-11-15T05:09:40.346Z,9.16
2023-11-15T05:12:09.049Z,9.21
2023-11-15T05:14:38.008Z,9.21
2023-11-15T05:17:06.572Z,9.22
2023-11-15T05:19:38.262Z,9.23
2023-11-15T05:22:06.647Z,9.22
2023-11-15T05:24:34.865Z,9.21
2023-11-15T05:27:03.385Z,9.20
2023-11-15T05:29:32.091Z,9.22
2023-11-15T05:32:00.386Z,9.25
2023-11-15T05:34:52.076Z,9.27
2023-11-15T05:37:26.376Z,9.23
2023-11-15T05:39:54.473Z,9.28
2023-11-15T05:42:22.605Z,9.29
2023-11-15T05:44:50.824Z,9.26
2023-11-15T05:47:19.038Z,9.24
2023-11-15T05:49:48.142Z,9.24
2023-11-15T05:52:16.619Z,9.27
2023-11-15T05:54:48.045Z,9.29
2023-11-15T05:57:16.334Z,9.30
2023-11-15T05:59:44.583Z,9.27
2023-11-15T06:02:13.523Z,9.28
2023-11-15T06:04:43.064Z,9.27
2023-11-15T06:07:11.392Z,9.32
2023-11-15T06:09:39.528Z,9.32
2023-11-15T06:12:10.607Z,9.26
2023-11-15T06:14:38.816Z,9.32
2023-11-15T06:17:09.125Z,9.32
2023-11-15T06:19:37.675Z,9.32
2023-11-15T06:22:05.966Z,9.34
2023-11-15T06:24:34.320Z,9.34
2023-11-15T06:27:02.433Z,9.33
2023-11-15T06:29:31.969Z,9.32
2023-11-15T06:32:03.816Z,9.35
2023-11-15T06:34:32.040Z,9.33
2023-11-15T06:37:00.786Z,9.34
2023-11-15T06:39:28.855Z,9.36
2023-11-15T06:41:56.979Z,9.36
2023-11-15T06:44:27.630Z,9.34
2023-11-15T06:46:57.240Z,9.32
2023-11-15T06:49:25.353Z,9.26
2023-11-15T06:51:53.419Z,9.25
2023-11-15T06:54:21.519Z,9.24
2023-11-15T06:56:49.884Z,9.24
2023-11-15T06:59:18.435Z,9.28
2023-11-15T07:01:51.151Z,9.29
2023-11-15T07:04:23.607Z,9.27
2023-11-15T07:06:52.048Z,9.27
2023-11-15T07:09:20.509Z,9.28
2023-11-15T07:11:49.641Z,9.26
2023-11-15T07:14:18.137Z,9.26
2023-11-15T07:16:47.697Z,9.26
2023-11-15T07:19:15.974Z,9.28
2023-11-15T07:21:45.454Z,9.24
2023-11-15T07:24:14.190Z,9.28
2023-11-15T07:26:42.380Z,9.32
2023-11-15T07:29:11.308Z,9.35
2023-11-15T07:31:42.086Z,9.33
2023-11-15T07:34:11.906Z,9.32
2023-11-15T07:36:39.934Z,9.30
2023-11-15T07:39:14.952Z,9.30
2023-11-15T07:41:45.741Z,9.34
2023-11-15T07:44:17.201Z,9.26
2023-11-15T07:46:51.253Z,9.19
2023-11-15T07:49:21.663Z,9.19
2023-11-15T07:51:50.658Z,9.16
2023-11-15T07:54:20.721Z,9.13
2023-11-15T07:56:49.186Z,9.13
2023-11-15T07:59:18.208Z,9.14
2023-11-15T08:01:48.340Z,9.14
2023-11-15T08:04:17.391Z,9.15
2023-11-15T08:06:48.304Z,9.16
2023-11-15T08:09:26.422Z,9.20
2023-11-15T08:11:57.882Z,9.26
2023-11-15T08:14:27.039Z,9.33
2023-11-15T08:16:57.910Z,9.41
2023-11-15T08:19:26.120Z,9.42
2023-11-15T08:21:54.282Z,9.46
2023-11-15T08:24:23.283Z,9.48
2023-11-15T08:26:53.767Z,9.54
2023-11-15T08:29:24.369Z,9.60
2023-11-15T08:31:52.777Z,9.62
2023-11-15T08:34:23.882Z,9.68
2023-11-15T08:36:52.978Z,9.73
2023-11-15T08:39:23.712Z,9.75
2023-11-15T08:41:54.938Z,9.76
2023-11-15T08:44:24.535Z,9.81
2023-11-15T08:46:52.825Z,9.85
2023-11-15T08:49:21.776Z,9.87
2023-11-15T08:51:51.917Z,9.91
2023-11-15T08:54:20.281Z,9.94
2023-11-15T08:56:48.426Z,9.97
2023-11-15T08:59:16.865Z,10.04
2023-11-15T09:01:49.058Z,10.03
2023-11-15T09:04:17.656Z,10.08
2023-11-15T09:06:48.262Z,10.10
2023-11-15T09:09:17.193Z,10.17
2023-11-15T09:11:46.146Z,10.27
2023-11-15T09:14:15.945Z,10.34
2023-11-15T09:16:45.970Z,10.43
2023-11-15T09:19:18.664Z,10.53
2023-11-15T09:21:50.160Z,10.60
2023-11-15T09:24:23.811Z,10.53
2023-11-15T09:26:53.118Z,10.59
2023-11-15T09:29:21.621Z,10.62
2023-11-15T09:31:51.240Z,10.62
2023-11-15T09:34:21.779Z,10.60
2023-11-15T09:36:53.312Z,10.61
2023-11-15T09:39:21.847Z,10.60
2023-11-15T09:41:55.314Z,10.56
2023-11-15T09:44:24.951Z,10.59
2023-11-15T09:46:59.123Z,10.62
2023-11-15T09:49:30.922Z,10.67
2023-11-15T09:52:00.424Z,10.72
2023-11-15T09:54:30.379Z,10.68
2023-11-15T09:57:00.876Z,10.62
2023-11-15T09:59:31.402Z,10.60
2023-11-15T10:01:59.782Z,10.61
2023-11-15T10:04:31.175Z,10.57
2023-11-15T10:07:05.875Z,10.56
2023-11-15T10:09:39.985Z,10.58
2023-11-15T10:12:09.387Z,10.60
2023-11-15T10:14:52.382Z,10.65
2023-11-15T10:17:40.779Z,10.72
2023-11-15T10:20:21.366Z,10.83
2023-11-15T10:22:49.810Z,10.90
2023-11-15T10:25:19.335Z,10.97
2023-11-15T10:27:48.120Z,11.07
2023-11-15T10:30:21.795Z,11.25
2023-11-15T10:32:52.336Z,11.34
2023-11-15T10:35:29.657Z,11.39
2023-11-15T10:37:58.634Z,11.42
2023-11-15T10:40:30.117Z,11.43
2023-11-15T10:43:00.070Z,11.51
2023-11-15T10:45:29.630Z,11.61
2023-11-15T10:48:00.035Z,11.69
2023-11-15T10:50:32.339Z,11.81
2023-11-15T10:53:01.530Z,11.92
2023-11-15T10:55:31.160Z,11.90
2023-11-15T10:58:04.181Z,11.96
2023-11-15T11:00:32.530Z,12.05
2023-11-15T11:03:00.788Z,12.12
2023-11-15T11:05:43.133Z,12.23
2023-11-15T11:08:21.842Z,12.28
2023-11-15T11:10:57.816Z,12.40
2023-11-15T11:13:25.912Z,12.39
2023-11-15T11:15:54.072Z,12.48
2023-11-15T11:18:23.428Z,12.48
2023-11-15T11:21:01.191Z,12.33
2023-11-15T11:23:35.327Z,12.27
2023-11-15T11:26:33.781Z,12.36
2023-11-15T11:29:04.169Z,12.32
2023-11-15T11:31:32.546Z,12.34
2023-11-15T11:34:11.847Z,12.28
2023-11-15T11:36:51.026Z,12.29
2023-11-15T11:39:23.945Z,12.27
2023-11-15T11:41:52.421Z,12.29
2023-11-15T11:44:20.549Z,12.34
2023-11-15T11:47:03.997Z,12.34
2023-11-15T11:49:47.933Z,12.38
2023-11-15T11:52:21.123Z,12.37
2023-11-15T11:54:53.092Z,12.45
2023-11-15T11:57:25.513Z,12.47
2023-11-15T12:00:05.961Z,12.48
2023-11-15T12:02:35.386Z,12.55
2023-11-15T12:05:07.768Z,12.48
2023-11-15T12:07:43.799Z,12.49
2023-11-15T12:10:13.713Z,12.47
2023-11-15T12:12:42.544Z,12.37
2023-11-15T12:15:14.462Z,12.19
2023-11-15T12:17:45.468Z,12.15
2023-11-15T12:20:14.909Z,12.03
2023-11-15T12:22:46.843Z,12.04
2023-11-15T12:25:16.864Z,11.94
2023-11-15T12:27:45.718Z,11.79
2023-11-15T12:30:14.188Z,11.68
2023-11-15T12:32:43.416Z,11.60
2023-11-15T12:35:12.044Z,11.50
2023-11-15T12:37:40.574Z,11.46
2023-11-15T12:40:20.387Z,11.47
2023-11-15T12:42:49.279Z,11.47
2023-11-15T12:45:29.849Z,11.41
2023-11-15T12:48:09.058Z,11.35
2023-11-15T12:50:42.623Z,11.28
2023-11-15T12:53:15.978Z,11.30
2023-11-15T12:55:51.756Z,11.24
2023-11-15T12:58:20.868Z,11.20
2023-11-15T13:01:02.476Z,11.14
2023-11-15T13:03:34.311Z,11.08
2023-11-15T13:06:12.842Z,10.93
2023-11-15T13:08:42.395Z,10.94
2023-11-15T13:11:13.446Z,10.84
2023-11-15T13:13:41.740Z,10.84
2023-11-15T13:16:10.589Z,10.72
2023-11-15T13:18:39.397Z,10.67
2023-11-15T13:21:08.647Z,10.67
2023-11-15T13:23:40.617Z,10.63
2023-11-15T13:26:11.564Z,10.62
2023-11-15T13:28:43.411Z,10.59
2023-11-15T13:31:15.381Z,10.51
2023-11-15T13:33:48.709Z,10.54
2023-11-15T13:36:21.061Z,10.51
2023-11-15T13:38:50.108Z,10.55
2023-11-15T13:41:23.696Z,10.56
2023-11-15T13:43:54.453Z,10.53
2023-11-15T13:46:24.519Z,10.51
2023-11-15T13:48:54.338Z,10.51
2023-11-15T13:51:23.354Z,10.50
2023-11-15T13:53:52.018Z,10.45
2023-11-15T13:56:21.114Z,10.39
2023-11-15T13:58:53.319Z,10.37
2023-11-15T14:01:25.397Z,10.39
2023-11-15T14:03:53.693Z,10.38
2023-11-15T14:06:21.812Z,10.35
2023-11-15T14:08:58.242Z,10.30
2023-11-15T14:11:30.280Z,10.32
2023-11-15T14:14:00.117Z,10.30
2023-11-15T14:16:28.536Z,10.25
2023-11-15T14:19:03.444Z,10.20
2023-11-15T14:21:32.069Z,10.18
2023-11-15T14:24:00.182Z,10.14
2023-11-15T14:26:28.865Z,10.15
2023-11-15T14:28:56.940Z,10.13
2023-11-15T14:31:26.384Z,10.11
2023-11-15T14:33:54.592Z,10.11
2023-11-15T14:36:26.179Z,10.15
2023-11-15T14:38:55.942Z,10.12
2023-11-15T14:41:24.191Z,10.17
2023-11-15T14:43:52.439Z,10.17
2023-11-15T14:46:24.566Z,10.18
2023-11-15T14:48:54.760Z,10.20
2023-11-15T14:51:23.010Z,10.17
2023-11-15T14:53:56.557Z,10.16
2023-11-15T14:56:25.249Z,10.11
2023-11-15T14:58:55.452Z,10.06
2023-11-15T15:01:25.770Z,10.02
2023-11-15T15:03:55.413Z,10.02
2023-11-15T15:06:23.727Z,10.03
2023-11-15T15:08:51.803Z,10.04
2023-11-15T15:11:19.895Z,9.95
2023-11-15T15:13:47.978Z,9.93
2023-11-15T15:16:17.910Z,9.89
2023-11-15T15:18:46.227Z,9.90
2023-11-15T15:21:18.342Z,9.90
2023-11-15T15:23:46.432Z,9.88
2023-11-15T15:26:15.548Z,9.86
2023-11-15T15:28:43.649Z,9.81
2023-11-15T15:31:13.993Z,9.75
2023-11-15T15:33:43.690Z,9.68
2023-11-15T15:36:14.208Z,9.61
2023-11-15T15:38:43.763Z,9.60
2023-11-15T15:41:11.927Z,9.59
2023-11-15T15:43:40.063Z,9.57
2023-11-15T15:46:08.369Z,9.51
2023-11-15T15:48:36.564Z,9.50
2023-11-15T15:51:05.000Z,9.45
2023-11-15T15:53:33.174Z,9.42
2023-11-15T15:56:02.780Z,9.37
2023-11-15T15:58:30.846Z,9.29
2023-11-15T16:00:59.156Z,9.19
2023-11-15T16:03:27.905Z,9.16
2023-11-15T16:05:57.104Z,9.06
2023-11-15T16:08:27.868Z,8.93
2023-11-15T16:10:57.305Z,8.87
2023-11-15T16:13:26.731Z,8.82
2023-11-15T16:15:54.881Z,8.79
2023-11-15T16:18:23.674Z,8.79
2023-11-15T16:20:55.077Z,8.72
2023-11-15T16:23:23.237Z,8.67
2023-11-15T16:25:52.710Z,8.65
2023-11-15T16:28:22.127Z,8.63
2023-11-15T16:30:51.610Z,8.53
2023-11-15T16:33:19.826Z,8.49
2023-11-15T16:35:50.025Z,8.43
2023-11-15T16:38:18.162Z,8.41
2023-11-15T16:40:46.330Z,8.42
2023-11-15T16:43:15.329Z,8.39
2023-11-15T16:45:43.791Z,8.37
2023-11-15T16:48:13.368Z,8.30
2023-11-15T16:50:43.884Z,8.30
2023-11-15T16:53:13.094Z,8.26
2023-11-15T16:55:41.719Z,8.22
2023-11-15T16:58:12.176Z,8.15
2023-11-15T17:00:41.025Z,8.13
2023-11-15T17:03:10.202Z,8.12
2023-11-15T17:05:40.476Z,8.12
2023-11-15T17:08:08.695Z,8.11
2023-11-15T17:10:37.275Z,8.09
2023-11-15T17:13:06.551Z,8.06
2023-11-15T17:15:34.706Z,8.04
2023-11-15T17:18:03.333Z,8.01
2023-11-15T17:20:33.707Z,7.99
2023-11-15T17:23:08.846Z,7.93
2023-11-15T17:25:37.489Z,7.90
2023-11-15T17:28:06.690Z,7.87
2023-11-15T17:30:34.765Z,7.84
2023-11-15T17:33:04.102Z,7.84
2023-11-15T17:35:32.217Z,7.83
2023-11-15T17:38:00.492Z,7.81
2023-11-15T17:40:31.965Z,7.83
2023-11-15T17:43:01.267Z,7.83
2023-11-15T17:45:32.756Z,7.81
2023-11-15T17:48:01.052Z,7.77
2023-11-15T17:50:31.674Z,7.75
2023-11-15T17:53:00.129Z,7.74
2023-11-15T17:55:29.796Z,7.72
2023-11-15T17:57:57.946Z,7.71
2023-11-15T18:00:26.122Z,7.73
2023-11-15T18:02:54.380Z,7.74
2023-11-15T18:05:23.481Z,7.76
2023-11-15T18:07:55.809Z,7.79
2023-11-15T18:10:29.528Z,7.77
2023-11-15T18:12:59.635Z,7.77
2023-11-15T18:15:28.045Z,7.79
2023-11-15T18:17:56.328Z,7.83
2023-11-15T18:20:25.026Z,7.85
2023-11-15T18:22:55.408Z,7.87
2023-11-15T18:25:23.673Z,7.90
2023-11-15T18:27:51.758Z,7.94
2023-11-15T18:30:21.215Z,7.95
2023-11-15T18:32:49.553Z,7.97
2023-11-15T18:35:18.362Z,7.99
2023-11-15T18:37:46.563Z,7.98
2023-11-15T18:40:18.240Z,7.99
2023-11-15T18:42:46.504Z,8.02
2023-11-15T18:45:15.073Z,8.00
2023-11-15T18:47:45.671Z,8.01
2023-11-15T18:50:15.776Z,8.01
2023-11-15T18:52:44.821Z,8.01
2023-11-15T18:55:18.840Z,8.05
2023-11-15T18:57:47.024Z,8.01
2023-11-15T19:00:19.412Z,8.04
2023-11-15T19:02:49.653Z,8.02
2023-11-15T19:05:19.036Z,8.01
2023-11-15T19:07:47.676Z,8.03
2023-11-15T19:10:19.022Z,8.00
2023-11-15T19:12:49.857Z,7.98
2023-11-15T19:15:22.120Z,7.94
2023-11-15T19:17:51.872Z,7.93
2023-11-15T19:20:21.960Z,7.92
2023-11-15T19:22:54.481Z,7.96
2023-11-15T19:25:24.149Z,7.98
2023-11-15T19:27:52.246Z,7.99
2023-11-15T19:30:24.456Z,8.02
2023-11-15T19:32:56.904Z,8.06
2023-11-15T19:35:25.480Z,8.05
2023-11-15T19:37:53.555Z,8.07
2023-11-15T19:40:21.628Z,8.11
2023-11-15T19:42:50.487Z,8.10
2023-11-15T19:45:19.103Z,8.09
2023-11-15T19:47:48.007Z,8.07
2023-11-15T19:50:17.496Z,8.08
2023-11-15T19:52:46.453Z,8.06
2023-11-15T19:55:16.227Z,8.07
2023-11-15T19:57:44.502Z,8.08
2023-11-15T20:00:13.859Z,8.09
2023-11-15T20:02:46.825Z,8.09
2023-11-15T20:05:18.066Z,8.10
2023-11-15T20:07:46.444Z,8.11
2023-11-15T20:10:14.693Z,8.13
2023-11-15T20:12:44.349Z,8.17
2023-11-15T20:15:14.392Z,8.17
2023-11-15T20:17:46.608Z,8.18
2023-11-15T20:20:16.097Z,8.16
2023-11-15T20:22:51.801Z,8.12
2023-11-15T20:25:22.004Z,8.13
2023-11-15T20:27:50.252Z,8.15
2023-11-15T20:30:19.426Z,8.18
2023-11-15T20:32:48.130Z,8.16
2023-11-15T20:35:17.586Z,8.18
2023-11-15T20:37:47.060Z,8.17
2023-11-15T20:40:16.986Z,8.19
2023-11-15T20:42:48.791Z,8.18
2023-11-15T20:45:19.781Z,8.19
2023-11-15T20:47:48.100Z,8.19
2023-11-15T20:50:16.528Z,8.18
2023-11-15T20:52:47.386Z,8.15
2023-11-15T20:55:20.642Z,8.15
2023-11-15T20:57:50.380Z,8.14
2023-11-15T21:00:26.931Z,8.12
2023-11-15T21:02:57.068Z,8.10
2023-11-15T21:05:26.331Z,8.12
2023-11-15T21:07:56.607Z,8.09
2023-11-15T21:10:25.091Z,8.06
2023-11-15T21:12:53.562Z,8.07
2023-11-15T21:15:22.178Z,8.08
2023-11-15T21:17:50.238Z,8.03
2023-11-15T21:20:18.472Z,8.05
2023-11-15T21:22:49.095Z,8.05
2023-11-15T21:25:19.016Z,8.00
2023-11-15T21:27:49.606Z,8.00
2023-11-15T21:30:19.334Z,7.97
2023-11-15T21:32:48.163Z,7.93
2023-11-15T21:35:16.465Z,7.99
2023-11-15T21:37:46.057Z,7.97
2023-11-15T21:40:16.680Z,7.94
2023-11-15T21:42:48.564Z,7.89
2023-11-15T21:45:18.898Z,7.92
2023-11-15T21:47:47.243Z,7.94
2023-11-15T21:50:16.857Z,7.94
2023-11-15T21:52:45.605Z,7.93
2023-11-15T21:55:13.831Z,7.95
2023-11-15T21:57:42.107Z,7.98
2023-11-15T22:00:15.902Z,7.98
2023-11-15T22:02:44.340Z,7.99
2023-11-15T22:05:12.701Z,7.99
2023-11-15T22:07:41.010Z,8.04
2023-11-15T22:10:10.617Z,8.09
2023-11-15T22:12:39.035Z,8.09
2023-11-15T22:15:10.087Z,8.07
2023-11-15T22:17:41.126Z,8.06
2023-11-15T22:20:11.943Z,8.06
2023-11-15T22:22:40.401Z,8.04
2023-11-15T22:25:08.981Z,8.05
2023-11-15T22:27:39.918Z,8.02
2023-11-15T22:30:11.268Z,8.03
2023-11-15T22:32:41.479Z,8.01
2023-11-15T22:35:11.060Z,8.03
2023-11-15T22:37:39.359Z,8.03
2023-11-15T22:40:08.419Z,8.01
2023-11-15T22:42:36.540Z,8.03
2023-11-15T22:45:05.636Z,8.05
2023-11-15T22:47:34.819Z,8.06
2023-11-15T22:50:05.788Z,8.06
2023-11-15T22:52:34.646Z,8.08
2023-11-15T22:55:02.764Z,8.07
2023-11-15T22:57:30.870Z,8.07
2023-11-15T22:59:59.281Z,8.07
2023-11-15T23:02:27.612Z,8.05
2023-11-15T23:04:56.719Z,8.03
2023-11-15T23:07:26.534Z,8.02
2023-11-15T23:09:54.682Z,8.03
2023-11-15T23:12:24.133Z,8.05
2023-11-15T23:14:52.277Z,8.04
2023-11-15T23:17:22.723Z,8.05
2023-11-15T23:19:51.895Z,8.03
2023-11-15T23:22:20.027Z,8.05
2023-11-15T23:24:49.453Z,8.07
2023-11-15T23:27:18.159Z,8.02
2023-11-15T23:29:46.314Z,8.04
2023-11-15T23:32:14.548Z,8.01
2023-11-15T23:34:43.483Z,8.02
2023-11-15T23:37:11.624Z,8.03
2023-11-15T23:39:39.834Z,7.98
2023-11-15T23:42:10.932Z,8.00
2023-11-15T23:44:42.726Z,7.99
2023-11-15T23:47:10.924Z,7.98
2023-11-15T23:49:39.074Z,8.02
2023-11-15T23:52:07.765Z,8.02
2023-11-15T23:54:38.512Z,8.05
2023-11-15T23:57:09.481Z,8.05
2023-11-15T23:59:40.634Z,8.04
